sensor_id;sensor_type;location;lat;lon;timestamp;P1;durP1;ratioP1;P2;durP2;ratioP2
25531;SDS011;13429;48.816;9.118;2022-08-19T00:01:10;22.60;;;13.68;;
25531;SDS011;13429;48.816;9.118;2022-08-19T00:03:36;19.27;;;12.90;;
25531;SDS011;13429;48.816;9.118;2022-08-19T00:06:01;17.20;;;12.65;;
25531;SDS011;13429;48.816;9.118;2022-08-19T00:08:28;18.08;;;13.23;;
25531;SDS011;13429;48.816;9.118;2022-08-19T00:10:54;20.05;;;13.18;;
25531;SDS011;13429;48.816;9.118;2022-08-19T00:13:20;15.80;;;12.48;;
25531;SDS011;13429;48.816;9.118;2022-08-19T00:15:46;20.38;;;13.63;;
25531;SDS011;13429;48.816;9.118;2022-08-19T00:18:12;18.58;;;13.93;;
25531;SDS011;13429;48.816;9.118;2022-08-19T00:20:38;17.42;;;13.18;;
25531;SDS011;13429;48.816;9.118;2022-08-19T00:23:05;18.02;;;12.90;;
25531;SDS011;13429;48.816;9.118;2022-08-19T00:25:31;18.77;;;13.57;;
25531;SDS011;13429;48.816;9.118;2022-08-19T00:27:57;18.30;;;14.32;;
25531;SDS011;13429;48.816;9.118;2022-08-19T00:30:24;20.50;;;14.05;;
25531;SDS011;13429;48.816;9.118;2022-08-19T00:32:52;19.08;;;13.13;;
25531;SDS011;13429;48.816;9.118;2022-08-19T00:35:20;19.95;;;13.93;;
25531;SDS011;13429;48.816;9.118;2022-08-19T00:37:47;18.50;;;13.25;;
25531;SDS011;13429;48.816;9.118;2022-08-19T00:40:13;20.40;;;13.80;;
25531;SDS011;13429;48.816;9.118;2022-08-19T00:42:40;20.30;;;13.55;;
25531;SDS011;13429;48.816;9.118;2022-08-19T00:45:11;19.00;;;12.50;;
25531;SDS011;13429;48.816;9.118;2022-08-19T00:47:38;18.33;;;13.02;;
25531;SDS011;13429;48.816;9.118;2022-08-19T00:50:04;20.05;;;14.52;;
25531;SDS011;13429;48.816;9.118;2022-08-19T00:52:32;18.80;;;12.52;;
25531;SDS011;13429;48.816;9.118;2022-08-19T00:54:59;17.88;;;14.10;;
25531;SDS011;13429;48.816;9.118;2022-08-19T00:57:44;20.30;;;14.65;;
25531;SDS011;13429;48.816;9.118;2022-08-19T01:00:13;20.58;;;14.65;;
25531;SDS011;13429;48.816;9.118;2022-08-19T01:02:40;20.10;;;14.40;;
25531;SDS011;13429;48.816;9.118;2022-08-19T01:05:08;19.58;;;14.45;;
25531;SDS011;13429;48.816;9.118;2022-08-19T01:07:35;19.40;;;14.45;;
25531;SDS011;13429;48.816;9.118;2022-08-19T01:10:01;17.45;;;13.13;;
25531;SDS011;13429;48.816;9.118;2022-08-19T01:12:28;22.92;;;15.15;;
25531;SDS011;13429;48.816;9.118;2022-08-19T01:14:55;19.02;;;13.30;;
25531;SDS011;13429;48.816;9.118;2022-08-19T01:17:21;20.23;;;15.05;;
25531;SDS011;13429;48.816;9.118;2022-08-19T01:19:47;19.77;;;13.70;;
25531;SDS011;13429;48.816;9.118;2022-08-19T01:24:42;18.65;;;13.70;;
25531;SDS011;13429;48.816;9.118;2022-08-19T01:27:08;19.23;;;13.57;;
25531;SDS011;13429;48.816;9.118;2022-08-19T01:29:36;18.35;;;14.00;;
25531;SDS011;13429;48.816;9.118;2022-08-19T01:32:03;20.17;;;15.25;;
25531;SDS011;13429;48.816;9.118;2022-08-19T01:34:29;19.40;;;14.30;;
25531;SDS011;13429;48.816;9.118;2022-08-19T01:36:55;21.27;;;15.50;;
25531;SDS011;13429;48.816;9.118;2022-08-19T01:39:23;20.85;;;14.90;;
25531;SDS011;13429;48.816;9.118;2022-08-19T01:41:50;19.98;;;14.98;;
25531;SDS011;13429;48.816;9.118;2022-08-19T01:44:19;25.80;;;16.23;;
25531;SDS011;13429;48.816;9.118;2022-08-19T01:46:49;22.98;;;15.00;;
25531;SDS011;13429;48.816;9.118;2022-08-19T01:49:16;27.33;;;16.77;;
25531;SDS011;13429;48.816;9.118;2022-08-19T01:51:43;22.75;;;15.65;;
25531;SDS011;13429;48.816;9.118;2022-08-19T01:54:10;23.98;;;15.50;;
25531;SDS011;13429;48.816;9.118;2022-08-19T01:56:37;23.35;;;15.85;;
25531;SDS011;13429;48.816;9.118;2022-08-19T01:59:05;25.00;;;16.67;;
25531;SDS011;13429;48.816;9.118;2022-08-19T02:01:32;21.75;;;15.45;;
25531;SDS011;13429;48.816;9.118;2022-08-19T02:03:59;25.45;;;17.13;;
25531;SDS011;13429;48.816;9.118;2022-08-19T02:06:26;21.55;;;15.90;;
25531;SDS011;13429;48.816;9.118;2022-08-19T02:08:52;23.30;;;15.05;;
25531;SDS011;13429;48.816;9.118;2022-08-19T02:11:19;22.20;;;16.50;;
25531;SDS011;13429;48.816;9.118;2022-08-19T02:13:45;26.67;;;17.85;;
25531;SDS011;13429;48.816;9.118;2022-08-19T02:16:11;25.83;;;16.85;;
25531;SDS011;13429;48.816;9.118;2022-08-19T02:18:37;29.08;;;18.58;;
25531;SDS011;13429;48.816;9.118;2022-08-19T02:21:03;23.60;;;16.10;;
25531;SDS011;13429;48.816;9.118;2022-08-19T02:23:30;25.00;;;17.58;;
25531;SDS011;13429;48.816;9.118;2022-08-19T02:25:56;25.77;;;16.15;;
25531;SDS011;13429;48.816;9.118;2022-08-19T02:28:23;22.55;;;16.00;;
25531;SDS011;13429;48.816;9.118;2022-08-19T02:30:49;26.80;;;17.85;;
25531;SDS011;13429;48.816;9.118;2022-08-19T02:33:15;28.40;;;17.77;;
25531;SDS011;13429;48.816;9.118;2022-08-19T02:35:44;24.85;;;17.83;;
25531;SDS011;13429;48.816;9.118;2022-08-19T02:38:11;26.30;;;17.17;;
25531;SDS011;13429;48.816;9.118;2022-08-19T02:43:18;26.25;;;18.63;;
25531;SDS011;13429;48.816;9.118;2022-08-19T02:45:47;29.95;;;18.77;;
25531;SDS011;13429;48.816;9.118;2022-08-19T02:48:20;27.60;;;19.08;;
25531;SDS011;13429;48.816;9.118;2022-08-19T02:50:46;24.85;;;17.33;;
25531;SDS011;13429;48.816;9.118;2022-08-19T02:53:13;29.05;;;19.70;;
25531;SDS011;13429;48.816;9.118;2022-08-19T02:55:43;26.90;;;18.77;;
25531;SDS011;13429;48.816;9.118;2022-08-19T02:58:09;29.38;;;19.80;;
25531;SDS011;13429;48.816;9.118;2022-08-19T03:00:35;29.15;;;20.52;;
25531;SDS011;13429;48.816;9.118;2022-08-19T03:03:01;28.10;;;19.02;;
25531;SDS011;13429;48.816;9.118;2022-08-19T03:05:28;28.15;;;19.65;;
25531;SDS011;13429;48.816;9.118;2022-08-19T03:07:54;29.55;;;19.45;;
25531;SDS011;13429;48.816;9.118;2022-08-19T03:10:20;32.75;;;22.48;;
25531;SDS011;13429;48.816;9.118;2022-08-19T03:12:46;29.52;;;20.10;;
25531;SDS011;13429;48.816;9.118;2022-08-19T03:15:12;28.23;;;20.63;;
25531;SDS011;13429;48.816;9.118;2022-08-19T03:17:38;27.75;;;19.45;;
25531;SDS011;13429;48.816;9.118;2022-08-19T03:20:04;28.27;;;19.92;;
25531;SDS011;13429;48.816;9.118;2022-08-19T03:22:30;33.50;;;23.23;;
25531;SDS011;13429;48.816;9.118;2022-08-19T03:24:56;33.03;;;23.15;;
25531;SDS011;13429;48.816;9.118;2022-08-19T03:27:23;32.92;;;23.23;;
25531;SDS011;13429;48.816;9.118;2022-08-19T03:29:49;33.28;;;22.20;;
25531;SDS011;13429;48.816;9.118;2022-08-19T03:32:16;31.33;;;22.02;;
25531;SDS011;13429;48.816;9.118;2022-08-19T03:34:42;35.03;;;23.45;;
25531;SDS011;13429;48.816;9.118;2022-08-19T03:37:09;38.28;;;22.20;;
25531;SDS011;13429;48.816;9.118;2022-08-19T03:39:37;33.80;;;22.75;;
25531;SDS011;13429;48.816;9.118;2022-08-19T03:42:03;30.05;;;20.42;;
25531;SDS011;13429;48.816;9.118;2022-08-19T03:44:30;30.33;;;21.40;;
25531;SDS011;13429;48.816;9.118;2022-08-19T03:46:57;29.63;;;21.05;;
25531;SDS011;13429;48.816;9.118;2022-08-19T03:49:25;35.08;;;24.33;;
25531;SDS011;13429;48.816;9.118;2022-08-19T03:51:52;32.75;;;22.73;;
25531;SDS011;13429;48.816;9.118;2022-08-19T03:54:19;33.35;;;24.20;;
25531;SDS011;13429;48.816;9.118;2022-08-19T03:56:45;32.13;;;24.20;;
25531;SDS011;13429;48.816;9.118;2022-08-19T03:59:14;34.95;;;23.10;;
25531;SDS011;13429;48.816;9.118;2022-08-19T04:01:40;33.83;;;23.27;;
25531;SDS011;13429;48.816;9.118;2022-08-19T04:04:07;32.83;;;24.02;;
25531;SDS011;13429;48.816;9.118;2022-08-19T04:06:34;33.65;;;24.10;;
25531;SDS011;13429;48.816;9.118;2022-08-19T04:09:03;28.38;;;21.23;;
25531;SDS011;13429;48.816;9.118;2022-08-19T04:11:31;32.35;;;22.52;;
25531;SDS011;13429;48.816;9.118;2022-08-19T04:13:57;29.52;;;21.48;;
25531;SDS011;13429;48.816;9.118;2022-08-19T04:16:24;33.60;;;24.25;;
25531;SDS011;13429;48.816;9.118;2022-08-19T04:18:54;36.75;;;23.45;;
25531;SDS011;13429;48.816;9.118;2022-08-19T04:21:21;33.42;;;24.10;;
25531;SDS011;13429;48.816;9.118;2022-08-19T04:23:48;31.17;;;23.40;;
25531;SDS011;13429;48.816;9.118;2022-08-19T04:26:14;37.88;;;25.67;;
25531;SDS011;13429;48.816;9.118;2022-08-19T04:28:41;36.83;;;24.92;;
25531;SDS011;13429;48.816;9.118;2022-08-19T04:31:11;36.47;;;25.90;;
25531;SDS011;13429;48.816;9.118;2022-08-19T04:33:38;35.47;;;24.15;;
25531;SDS011;13429;48.816;9.118;2022-08-19T04:36:04;30.90;;;22.45;;
25531;SDS011;13429;48.816;9.118;2022-08-19T04:38:30;34.30;;;25.00;;
25531;SDS011;13429;48.816;9.118;2022-08-19T04:40:56;32.70;;;25.23;;
25531;SDS011;13429;48.816;9.118;2022-08-19T04:43:40;32.53;;;22.95;;
25531;SDS011;13429;48.816;9.118;2022-08-19T04:46:07;35.42;;;23.40;;
25531;SDS011;13429;48.816;9.118;2022-08-19T04:48:34;38.45;;;24.90;;
25531;SDS011;13429;48.816;9.118;2022-08-19T04:51:00;30.63;;;22.38;;
25531;SDS011;13429;48.816;9.118;2022-08-19T04:53:30;33.58;;;23.75;;
25531;SDS011;13429;48.816;9.118;2022-08-19T04:55:58;33.20;;;23.48;;
25531;SDS011;13429;48.816;9.118;2022-08-19T04:58:25;36.22;;;25.60;;
25531;SDS011;13429;48.816;9.118;2022-08-19T05:00:51;38.80;;;26.75;;
25531;SDS011;13429;48.816;9.118;2022-08-19T05:03:17;34.17;;;24.58;;
25531;SDS011;13429;48.816;9.118;2022-08-19T05:05:44;37.63;;;25.30;;
25531;SDS011;13429;48.816;9.118;2022-08-19T05:08:13;37.00;;;24.92;;
25531;SDS011;13429;48.816;9.118;2022-08-19T05:10:44;32.15;;;24.52;;
25531;SDS011;13429;48.816;9.118;2022-08-19T05:13:10;37.22;;;26.52;;
25531;SDS011;13429;48.816;9.118;2022-08-19T05:15:36;31.27;;;24.02;;
25531;SDS011;13429;48.816;9.118;2022-08-19T05:18:02;31.95;;;23.45;;
25531;SDS011;13429;48.816;9.118;2022-08-19T05:20:47;34.72;;;24.15;;
25531;SDS011;13429;48.816;9.118;2022-08-19T05:23:31;42.15;;;27.48;;
25531;SDS011;13429;48.816;9.118;2022-08-19T05:25:57;31.27;;;23.67;;
25531;SDS011;13429;48.816;9.118;2022-08-19T05:28:23;32.78;;;24.35;;
25531;SDS011;13429;48.816;9.118;2022-08-19T05:30:49;38.15;;;25.17;;
25531;SDS011;13429;48.816;9.118;2022-08-19T05:33:16;36.25;;;23.98;;
25531;SDS011;13429;48.816;9.118;2022-08-19T05:35:42;35.97;;;25.83;;
25531;SDS011;13429;48.816;9.118;2022-08-19T05:38:09;33.88;;;25.48;;
25531;SDS011;13429;48.816;9.118;2022-08-19T05:40:36;37.08;;;26.75;;
25531;SDS011;13429;48.816;9.118;2022-08-19T05:43:03;30.92;;;23.02;;
25531;SDS011;13429;48.816;9.118;2022-08-19T05:45:30;33.20;;;24.05;;
25531;SDS011;13429;48.816;9.118;2022-08-19T05:47:56;35.53;;;24.05;;
25531;SDS011;13429;48.816;9.118;2022-08-19T05:50:23;34.42;;;25.45;;
25531;SDS011;13429;48.816;9.118;2022-08-19T05:52:50;35.95;;;23.77;;
25531;SDS011;13429;48.816;9.118;2022-08-19T05:55:16;30.92;;;22.63;;
25531;SDS011;13429;48.816;9.118;2022-08-19T05:57:45;32.42;;;23.80;;
25531;SDS011;13429;48.816;9.118;2022-08-19T06:00:11;33.97;;;23.02;;
25531;SDS011;13429;48.816;9.118;2022-08-19T06:02:38;35.25;;;25.23;;
25531;SDS011;13429;48.816;9.118;2022-08-19T06:05:04;36.55;;;23.60;;
25531;SDS011;13429;48.816;9.118;2022-08-19T06:07:31;33.95;;;23.95;;
25531;SDS011;13429;48.816;9.118;2022-08-19T06:09:57;33.78;;;24.70;;
25531;SDS011;13429;48.816;9.118;2022-08-19T06:12:24;36.75;;;24.98;;
25531;SDS011;13429;48.816;9.118;2022-08-19T06:14:53;35.60;;;24.33;;
25531;SDS011;13429;48.816;9.118;2022-08-19T06:17:19;31.45;;;22.48;;
25531;SDS011;13429;48.816;9.118;2022-08-19T06:19:47;35.67;;;24.45;;
25531;SDS011;13429;48.816;9.118;2022-08-19T06:22:14;32.30;;;23.45;;
25531;SDS011;13429;48.816;9.118;2022-08-19T06:24:41;32.70;;;22.52;;
25531;SDS011;13429;48.816;9.118;2022-08-19T06:27:07;34.10;;;23.13;;
25531;SDS011;13429;48.816;9.118;2022-08-19T06:29:33;31.27;;;22.85;;
25531;SDS011;13429;48.816;9.118;2022-08-19T06:32:00;34.17;;;23.73;;
25531;SDS011;13429;48.816;9.118;2022-08-19T06:34:28;29.70;;;22.15;;
25531;SDS011;13429;48.816;9.118;2022-08-19T06:36:54;29.85;;;22.98;;
25531;SDS011;13429;48.816;9.118;2022-08-19T06:39:24;30.52;;;21.88;;
25531;SDS011;13429;48.816;9.118;2022-08-19T06:41:52;31.70;;;23.58;;
25531;SDS011;13429;48.816;9.118;2022-08-19T06:44:19;36.28;;;23.77;;
25531;SDS011;13429;48.816;9.118;2022-08-19T06:46:45;30.75;;;23.20;;
25531;SDS011;13429;48.816;9.118;2022-08-19T06:49:13;32.25;;;24.67;;
25531;SDS011;13429;48.816;9.118;2022-08-19T06:51:43;28.83;;;21.50;;
25531;SDS011;13429;48.816;9.118;2022-08-19T06:54:11;30.73;;;22.77;;
25531;SDS011;13429;48.816;9.118;2022-08-19T06:56:37;32.65;;;23.17;;
25531;SDS011;13429;48.816;9.118;2022-08-19T06:59:04;32.00;;;24.00;;
25531;SDS011;13429;48.816;9.118;2022-08-19T07:01:34;30.52;;;22.95;;
25531;SDS011;13429;48.816;9.118;2022-08-19T07:04:02;31.25;;;22.60;;
25531;SDS011;13429;48.816;9.118;2022-08-19T07:06:28;34.72;;;23.40;;
25531;SDS011;13429;48.816;9.118;2022-08-19T07:08:56;32.70;;;22.23;;
25531;SDS011;13429;48.816;9.118;2022-08-19T07:11:23;28.73;;;22.10;;
25531;SDS011;13429;48.816;9.118;2022-08-19T07:13:49;31.88;;;22.58;;
25531;SDS011;13429;48.816;9.118;2022-08-19T07:16:16;29.92;;;20.58;;
25531;SDS011;13429;48.816;9.118;2022-08-19T07:18:44;34.47;;;23.42;;
25531;SDS011;13429;48.816;9.118;2022-08-19T07:21:12;31.83;;;21.92;;
25531;SDS011;13429;48.816;9.118;2022-08-19T07:23:38;31.08;;;23.88;;
25531;SDS011;13429;48.816;9.118;2022-08-19T07:26:07;33.65;;;23.77;;
25531;SDS011;13429;48.816;9.118;2022-08-19T07:28:34;25.70;;;19.63;;
25531;SDS011;13429;48.816;9.118;2022-08-19T07:31:03;27.65;;;20.23;;
25531;SDS011;13429;48.816;9.118;2022-08-19T07:33:29;36.08;;;22.77;;
25531;SDS011;13429;48.816;9.118;2022-08-19T07:35:57;32.55;;;22.00;;
25531;SDS011;13429;48.816;9.118;2022-08-19T07:38:23;34.10;;;21.42;;
25531;SDS011;13429;48.816;9.118;2022-08-19T07:40:49;28.50;;;22.08;;
25531;SDS011;13429;48.816;9.118;2022-08-19T07:43:16;29.00;;;19.85;;
25531;SDS011;13429;48.816;9.118;2022-08-19T07:45:53;31.73;;;20.60;;
25531;SDS011;13429;48.816;9.118;2022-08-19T07:48:27;25.58;;;19.90;;
25531;SDS011;13429;48.816;9.118;2022-08-19T07:50:57;29.15;;;19.83;;
25531;SDS011;13429;48.816;9.118;2022-08-19T07:53:26;32.28;;;21.75;;
25531;SDS011;13429;48.816;9.118;2022-08-19T07:55:53;28.45;;;20.00;;
25531;SDS011;13429;48.816;9.118;2022-08-19T07:58:19;29.45;;;22.48;;
25531;SDS011;13429;48.816;9.118;2022-08-19T08:00:46;26.73;;;19.05;;
25531;SDS011;13429;48.816;9.118;2022-08-19T08:03:13;24.40;;;17.98;;
25531;SDS011;13429;48.816;9.118;2022-08-19T08:05:40;29.58;;;21.80;;
25531;SDS011;13429;48.816;9.118;2022-08-19T08:08:25;24.50;;;18.67;;
25531;SDS011;13429;48.816;9.118;2022-08-19T08:11:10;25.58;;;18.08;;
25531;SDS011;13429;48.816;9.118;2022-08-19T08:13:36;27.17;;;20.30;;
25531;SDS011;13429;48.816;9.118;2022-08-19T08:16:02;25.52;;;18.55;;
25531;SDS011;13429;48.816;9.118;2022-08-19T08:18:28;24.77;;;18.02;;
25531;SDS011;13429;48.816;9.118;2022-08-19T08:20:55;25.48;;;18.45;;
25531;SDS011;13429;48.816;9.118;2022-08-19T08:23:21;27.73;;;18.10;;
25531;SDS011;13429;48.816;9.118;2022-08-19T08:25:49;29.25;;;18.77;;
25531;SDS011;13429;48.816;9.118;2022-08-19T08:28:16;25.92;;;17.90;;
25531;SDS011;13429;48.816;9.118;2022-08-19T08:30:42;29.48;;;19.60;;
25531;SDS011;13429;48.816;9.118;2022-08-19T08:33:10;28.95;;;19.92;;
25531;SDS011;13429;48.816;9.118;2022-08-19T08:35:36;26.77;;;19.20;;
25531;SDS011;13429;48.816;9.118;2022-08-19T08:38:02;35.85;;;20.13;;
25531;SDS011;13429;48.816;9.118;2022-08-19T08:40:37;24.27;;;18.00;;
25531;SDS011;13429;48.816;9.118;2022-08-19T08:45:34;24.48;;;18.48;;
25531;SDS011;13429;48.816;9.118;2022-08-19T08:48:03;22.98;;;17.15;;
25531;SDS011;13429;48.816;9.118;2022-08-19T08:50:35;30.23;;;19.75;;
25531;SDS011;13429;48.816;9.118;2022-08-19T08:53:03;27.52;;;19.77;;
25531;SDS011;13429;48.816;9.118;2022-08-19T08:55:31;25.90;;;17.48;;
25531;SDS011;13429;48.816;9.118;2022-08-19T08:58:02;27.48;;;16.95;;
25531;SDS011;13429;48.816;9.118;2022-08-19T09:00:38;24.23;;;17.23;;
25531;SDS011;13429;48.816;9.118;2022-08-19T09:03:17;25.90;;;17.60;;
25531;SDS011;13429;48.816;9.118;2022-08-19T09:05:49;38.88;;;19.42;;
25531;SDS011;13429;48.816;9.118;2022-08-19T09:08:22;23.13;;;18.67;;
25531;SDS011;13429;48.816;9.118;2022-08-19T09:10:52;26.00;;;17.77;;
25531;SDS011;13429;48.816;9.118;2022-08-19T09:13:28;22.27;;;17.73;;
25531;SDS011;13429;48.816;9.118;2022-08-19T09:15:57;24.02;;;17.88;;
25531;SDS011;13429;48.816;9.118;2022-08-19T09:18:32;27.07;;;17.17;;
25531;SDS011;13429;48.816;9.118;2022-08-19T09:21:03;23.98;;;16.08;;
25531;SDS011;13429;48.816;9.118;2022-08-19T09:23:29;20.20;;;16.45;;
25531;SDS011;13429;48.816;9.118;2022-08-19T09:25:55;21.08;;;15.07;;
25531;SDS011;13429;48.816;9.118;2022-08-19T09:28:21;21.10;;;15.48;;
25531;SDS011;13429;48.816;9.118;2022-08-19T09:30:47;24.50;;;16.00;;
25531;SDS011;13429;48.816;9.118;2022-08-19T09:33:13;27.17;;;13.52;;
25531;SDS011;13429;48.816;9.118;2022-08-19T09:35:40;20.67;;;15.05;;
25531;SDS011;13429;48.816;9.118;2022-08-19T09:38:06;23.08;;;15.65;;
25531;SDS011;13429;48.816;9.118;2022-08-19T09:40:33;24.02;;;15.95;;
25531;SDS011;13429;48.816;9.118;2022-08-19T09:42:59;21.60;;;13.88;;
25531;SDS011;13429;48.816;9.118;2022-08-19T09:45:27;21.98;;;15.25;;
25531;SDS011;13429;48.816;9.118;2022-08-19T09:47:54;19.50;;;12.48;;
25531;SDS011;13429;48.816;9.118;2022-08-19T09:50:20;18.33;;;13.13;;
25531;SDS011;13429;48.816;9.118;2022-08-19T09:52:47;21.75;;;13.10;;
25531;SDS011;13429;48.816;9.118;2022-08-19T09:55:13;17.27;;;13.85;;
25531;SDS011;13429;48.816;9.118;2022-08-19T09:57:41;18.77;;;13.20;;
25531;SDS011;13429;48.816;9.118;2022-08-19T10:00:07;17.60;;;13.60;;
25531;SDS011;13429;48.816;9.118;2022-08-19T10:02:34;17.02;;;12.80;;
25531;SDS011;13429;48.816;9.118;2022-08-19T10:05:00;21.90;;;13.25;;
25531;SDS011;13429;48.816;9.118;2022-08-19T10:07:45;17.02;;;12.57;;
25531;SDS011;13429;48.816;9.118;2022-08-19T10:10:12;25.35;;;13.02;;
25531;SDS011;13429;48.816;9.118;2022-08-19T10:12:38;14.27;;;11.35;;
25531;SDS011;13429;48.816;9.118;2022-08-19T10:15:04;16.40;;;12.63;;
25531;SDS011;13429;48.816;9.118;2022-08-19T10:17:31;20.00;;;13.65;;
25531;SDS011;13429;48.816;9.118;2022-08-19T10:19:58;15.38;;;11.13;;
25531;SDS011;13429;48.816;9.118;2022-08-19T10:22:24;14.70;;;10.77;;
25531;SDS011;13429;48.816;9.118;2022-08-19T10:24:50;15.48;;;11.63;;
25531;SDS011;13429;48.816;9.118;2022-08-19T10:27:17;16.15;;;11.40;;
25531;SDS011;13429;48.816;9.118;2022-08-19T10:29:43;17.23;;;13.40;;
25531;SDS011;13429;48.816;9.118;2022-08-19T10:32:09;17.85;;;12.50;;
25531;SDS011;13429;48.816;9.118;2022-08-19T10:34:36;13.15;;;11.02;;
25531;SDS011;13429;48.816;9.118;2022-08-19T10:37:03;14.98;;;11.52;;
25531;SDS011;13429;48.816;9.118;2022-08-19T10:39:31;17.70;;;12.35;;
25531;SDS011;13429;48.816;9.118;2022-08-19T10:41:57;17.83;;;11.60;;
25531;SDS011;13429;48.816;9.118;2022-08-19T10:44:23;15.07;;;10.02;;
25531;SDS011;13429;48.816;9.118;2022-08-19T10:46:49;12.05;;;10.05;;
25531;SDS011;13429;48.816;9.118;2022-08-19T10:49:16;18.00;;;10.25;;
25531;SDS011;13429;48.816;9.118;2022-08-19T10:51:44;14.10;;;9.55;;
25531;SDS011;13429;48.816;9.118;2022-08-19T10:54:28;17.05;;;9.38;;
25531;SDS011;13429;48.816;9.118;2022-08-19T10:57:14;13.35;;;9.57;;
25531;SDS011;13429;48.816;9.118;2022-08-19T10:59:40;14.65;;;10.13;;
25531;SDS011;13429;48.816;9.118;2022-08-19T11:02:07;14.23;;;9.90;;
25531;SDS011;13429;48.816;9.118;2022-08-19T11:04:38;13.82;;;9.85;;
25531;SDS011;13429;48.816;9.118;2022-08-19T11:07:04;13.57;;;9.63;;
25531;SDS011;13429;48.816;9.118;2022-08-19T11:09:30;12.32;;;10.18;;
25531;SDS011;13429;48.816;9.118;2022-08-19T11:11:57;13.35;;;10.00;;
25531;SDS011;13429;48.816;9.118;2022-08-19T11:14:23;16.50;;;9.85;;
25531;SDS011;13429;48.816;9.118;2022-08-19T11:16:50;13.25;;;9.68;;
25531;SDS011;13429;48.816;9.118;2022-08-19T11:19:17;15.40;;;10.00;;
25531;SDS011;13429;48.816;9.118;2022-08-19T11:21:45;14.85;;;9.00;;
25531;SDS011;13429;48.816;9.118;2022-08-19T11:24:13;13.25;;;8.13;;
25531;SDS011;13429;48.816;9.118;2022-08-19T11:26:40;11.07;;;8.15;;
25531;SDS011;13429;48.816;9.118;2022-08-19T11:29:07;11.00;;;7.95;;
25531;SDS011;13429;48.816;9.118;2022-08-19T11:31:36;14.02;;;9.10;;
25531;SDS011;13429;48.816;9.118;2022-08-19T11:34:04;17.33;;;8.02;;
25531;SDS011;13429;48.816;9.118;2022-08-19T11:36:31;9.40;;;8.00;;
25531;SDS011;13429;48.816;9.118;2022-08-19T11:38:58;13.20;;;7.80;;
25531;SDS011;13429;48.816;9.118;2022-08-19T11:41:24;9.82;;;8.05;;
25531;SDS011;13429;48.816;9.118;2022-08-19T11:43:51;11.20;;;7.97;;
25531;SDS011;13429;48.816;9.118;2022-08-19T11:46:18;9.07;;;8.02;;
25531;SDS011;13429;48.816;9.118;2022-08-19T11:48:45;9.27;;;6.75;;
25531;SDS011;13429;48.816;9.118;2022-08-19T11:51:13;9.45;;;7.72;;
25531;SDS011;13429;48.816;9.118;2022-08-19T11:53:39;11.35;;;8.38;;
25531;SDS011;13429;48.816;9.118;2022-08-19T11:56:06;13.23;;;7.13;;
25531;SDS011;13429;48.816;9.118;2022-08-19T11:58:32;11.30;;;7.80;;
25531;SDS011;13429;48.816;9.118;2022-08-19T12:00:59;11.52;;;8.15;;
25531;SDS011;13429;48.816;9.118;2022-08-19T12:03:26;10.52;;;7.78;;
25531;SDS011;13429;48.816;9.118;2022-08-19T12:05:52;10.73;;;7.35;;
25531;SDS011;13429;48.816;9.118;2022-08-19T12:08:19;11.40;;;8.07;;
25531;SDS011;13429;48.816;9.118;2022-08-19T12:10:45;11.60;;;7.97;;
25531;SDS011;13429;48.816;9.118;2022-08-19T12:13:13;9.95;;;8.20;;
25531;SDS011;13429;48.816;9.118;2022-08-19T12:15:43;8.50;;;7.28;;
25531;SDS011;13429;48.816;9.118;2022-08-19T12:18:10;9.75;;;8.15;;
25531;SDS011;13429;48.816;9.118;2022-08-19T12:20:38;11.02;;;8.20;;
25531;SDS011;13429;48.816;9.118;2022-08-19T12:23:05;9.93;;;7.20;;
25531;SDS011;13429;48.816;9.118;2022-08-19T12:25:31;9.57;;;6.45;;
25531;SDS011;13429;48.816;9.118;2022-08-19T12:27:57;10.18;;;7.68;;
25531;SDS011;13429;48.816;9.118;2022-08-19T12:30:24;10.60;;;7.05;;
25531;SDS011;13429;48.816;9.118;2022-08-19T12:32:50;10.85;;;7.18;;
25531;SDS011;13429;48.816;9.118;2022-08-19T12:35:16;10.52;;;6.13;;
25531;SDS011;13429;48.816;9.118;2022-08-19T12:37:45;11.13;;;6.82;;
25531;SDS011;13429;48.816;9.118;2022-08-19T12:40:12;12.02;;;7.22;;
25531;SDS011;13429;48.816;9.118;2022-08-19T12:42:38;10.35;;;6.10;;
25531;SDS011;13429;48.816;9.118;2022-08-19T12:45:08;11.65;;;6.95;;
25531;SDS011;13429;48.816;9.118;2022-08-19T12:47:35;7.63;;;6.13;;
25531;SDS011;13429;48.816;9.118;2022-08-19T12:50:01;9.20;;;6.57;;
25531;SDS011;13429;48.816;9.118;2022-08-19T12:52:27;7.82;;;6.97;;
25531;SDS011;13429;48.816;9.118;2022-08-19T12:54:54;7.82;;;5.40;;
25531;SDS011;13429;48.816;9.118;2022-08-19T12:57:20;9.05;;;6.28;;
25531;SDS011;13429;48.816;9.118;2022-08-19T12:59:46;6.97;;;5.38;;
25531;SDS011;13429;48.816;9.118;2022-08-19T13:02:13;9.32;;;7.28;;
25531;SDS011;13429;48.816;9.118;2022-08-19T13:04:39;7.63;;;5.53;;
25531;SDS011;13429;48.816;9.118;2022-08-19T13:07:06;7.47;;;6.40;;
25531;SDS011;13429;48.816;9.118;2022-08-19T13:09:33;8.27;;;6.25;;
25531;SDS011;13429;48.816;9.118;2022-08-19T13:11:59;8.18;;;6.53;;
25531;SDS011;13429;48.816;9.118;2022-08-19T13:14:28;6.40;;;4.90;;
25531;SDS011;13429;48.816;9.118;2022-08-19T13:16:55;6.25;;;5.35;;
25531;SDS011;13429;48.816;9.118;2022-08-19T13:19:22;7.07;;;5.25;;
25531;SDS011;13429;48.816;9.118;2022-08-19T13:21:49;6.40;;;5.28;;
25531;SDS011;13429;48.816;9.118;2022-08-19T13:24:15;7.57;;;5.15;;
25531;SDS011;13429;48.816;9.118;2022-08-19T13:26:41;8.90;;;5.95;;
25531;SDS011;13429;48.816;9.118;2022-08-19T13:29:08;7.72;;;6.13;;
25531;SDS011;13429;48.816;9.118;2022-08-19T13:31:53;8.10;;;5.88;;
25531;SDS011;13429;48.816;9.118;2022-08-19T13:34:37;7.22;;;5.57;;
25531;SDS011;13429;48.816;9.118;2022-08-19T13:37:04;10.38;;;6.10;;
25531;SDS011;13429;48.816;9.118;2022-08-19T13:39:31;7.43;;;5.90;;
25531;SDS011;13429;48.816;9.118;2022-08-19T13:41:57;7.07;;;4.90;;
25531;SDS011;13429;48.816;9.118;2022-08-19T13:44:25;10.43;;;6.40;;
25531;SDS011;13429;48.816;9.118;2022-08-19T13:46:51;9.98;;;7.65;;
25531;SDS011;13429;48.816;9.118;2022-08-19T13:49:18;12.73;;;8.75;;
25531;SDS011;13429;48.816;9.118;2022-08-19T13:51:45;16.20;;;12.10;;
25531;SDS011;13429;48.816;9.118;2022-08-19T13:54:11;19.00;;;14.80;;
25531;SDS011;13429;48.816;9.118;2022-08-19T13:56:44;22.02;;;14.05;;
25531;SDS011;13429;48.816;9.118;2022-08-19T13:59:10;22.27;;;15.88;;
25531;SDS011;13429;48.816;9.118;2022-08-19T14:01:37;21.60;;;14.88;;
25531;SDS011;13429;48.816;9.118;2022-08-19T14:04:03;25.73;;;17.70;;
25531;SDS011;13429;48.816;9.118;2022-08-19T14:06:30;26.40;;;19.58;;
25531;SDS011;13429;48.816;9.118;2022-08-19T14:08:56;25.02;;;18.33;;
25531;SDS011;13429;48.816;9.118;2022-08-19T14:11:22;29.58;;;20.17;;
25531;SDS011;13429;48.816;9.118;2022-08-19T14:13:48;22.70;;;18.05;;
25531;SDS011;13429;48.816;9.118;2022-08-19T14:16:14;20.80;;;16.30;;
25531;SDS011;13429;48.816;9.118;2022-08-19T14:18:41;21.70;;;16.55;;
25531;SDS011;13429;48.816;9.118;2022-08-19T14:21:07;17.27;;;14.30;;
25531;SDS011;13429;48.816;9.118;2022-08-19T14:23:33;21.77;;;16.27;;
25531;SDS011;13429;48.816;9.118;2022-08-19T14:26:04;18.92;;;15.95;;
25531;SDS011;13429;48.816;9.118;2022-08-19T14:28:30;24.33;;;15.82;;
25531;SDS011;13429;48.816;9.118;2022-08-19T14:30:56;18.33;;;13.90;;
25531;SDS011;13429;48.816;9.118;2022-08-19T14:33:22;15.88;;;13.40;;
25531;SDS011;13429;48.816;9.118;2022-08-19T14:35:48;18.00;;;12.40;;